Pontlliw, United Kingdom
Current Conditions -  °F | °C
As of 8:50 AM on Wednesday 28 Jan 2015 (Local Time) from EGOP Reporting Station
Scattered Clouds Scattered Clouds  
Wind Chill: 50°   Ceiling: Unl
Heat Index: 50°   Visibility: 6mi
Dew Point: 43°   Wind: 35mph
Humidity: 76%   Direction: 260°W
Pressure: 29.65"   Gusts: 46mph
Location:  51.69°N, 4.01°W
Report Text: EGOP 280850Z 26030G40KT 9999 FEW025 SCT044 10/06 Q1004 BLU
Loading
Personal Weather Stations






























Interactive Weather Map New forecast layout! Learn more

10-Day Weather Forecast

Advertisements
Track Severe Weather on mobile